Flight Track Log - Related Links

Times and Time Zones

All times are in EDT time to prevent confusion due to time zone crossing. See the DAL268 flight status page for this flight to view local times or setup timezone preferences in your user account.

Time Position Orientation Groundspeed Altitude Reporting Facility
EDT Latitude Longitude Course Direction KTS MPH feet Rate Location/Type
Mon 02:31:29 PM 37.6110 -122.3780 67° East 110 127  Level FlightAware ADS-B
Mon 02:31:52 PM 37.6268 -122.3670 29° Northeast 179 206 300 1,448 Climbing FlightAware ADS-B
Mon 02:31:58 PM 37.6311 -122.3640 29° Northeast 178 205 700 3,600 Climbing FlightAware ADS-B
Mon 02:32:07 PM 37.6373 -122.3590 33° Northeast 180 207 1,200 3,231 Climbing FlightAware ADS-B
Mon 02:32:11 PM 37.6397 -122.3560 45° Northeast 180 207 1,400 3,000 Climbing FlightAware ADS-B
Mon 02:32:15 PM 37.6420 -122.3530 46° Northeast 182 209 1,600 2,000 Climbing FlightAware ADS-B
Mon 02:32:20 PM 37.6448 -122.3490 49° Northeast 188 216 1,700 1,143 Climbing FlightAware ADS-B
Mon 02:32:36 PM 37.6544 -122.3350 49° Northeast 213 245 2,000 1,556 Climbing FlightAware ADS-B
Mon 02:32:47 PM 37.6619 -122.3230 52° Northeast 224 258 2,400 1,846 Climbing FlightAware ADS-B
Mon 02:33:02 PM 37.6720 -122.3070 51° Northeast 248 285 2,800 1,800 Climbing FlightAware ADS-B
Mon 02:33:17 PM 37.6838 -122.2890 50° Northeast 263 303 3,300 2,824 Climbing FlightAware ADS-B
Mon 02:33:36 PM 37.6986 -122.2680 48° Northeast 265 305 4,400 3,176 Climbing FlightAware ADS-B
Mon 02:33:51 PM 37.7109 -122.2500 49° Northeast 268 308 5,100 2,800 Climbing FlightAware ADS-B
Mon 02:34:06 PM 37.7237 -122.2320 48° Northeast 276 318 5,800 2,647 Climbing FlightAware ADS-B
Mon 02:34:25 PM 37.7418 -122.2110 43° Northeast 286 329 6,600 2,824 Climbing FlightAware ADS-B
Mon 02:34:40 PM 37.7580 -122.1950 38° Northeast 291 335 7,400 2,903 Climbing FlightAware ADS-B
Mon 02:34:56 PM 37.7753 -122.1790 36° Northeast 294 338 8,100 2,743 Climbing FlightAware ADS-B
Mon 02:35:15 PM 37.7961 -122.1600 36° Northeast 297 342 9,000 2,667 Climbing FlightAware ADS-B
Mon 02:35:32 PM 37.8153 -122.1420 37° Northeast 306 352 9,700 2,043 Climbing FlightAware ADS-B
Mon 02:36:02 PM 37.8506 -122.1090 36° Northeast 326 375 10,600 1,500 Climbing FlightAware ADS-B
Mon 02:36:32 PM 37.8900 -122.0720 37° Northeast 361 415 11,200 1,180 Climbing FlightAware ADS-B
Mon 02:37:03 PM 37.9335 -122.0320 36° Northeast 389 448 11,800 1,645 Climbing FlightAware ADS-B
Mon 02:37:34 PM 37.9789 -121.9900 36° Northeast 400 460 12,900 2,200 Climbing FlightAware ADS-B
Mon 02:38:33 PM 38.0670 -121.9070 37° Northeast 413 475 15,100 2,188 Climbing FlightAware ADS-B
Mon 02:39:10 PM 38.1240 -121.8530 37° Northeast 421 484 16,400 2,000 Climbing FlightAware ADS-B
Mon 02:39:45 PM 38.1800 -121.8010 36° Northeast 430 495 17,500 1,791 Climbing FlightAware ADS-B
Mon 02:40:17 PM 38.2320 -121.7520 37° Northeast 438 504 18,400 1,886 Climbing FlightAware ADS-B
Mon 02:40:55 PM 38.2940 -121.6930 37° Northeast 442 509 19,700 1,865 Climbing FlightAware ADS-B
Mon 02:41:31 PM 38.3540 -121.6360 37° Northeast 451 519 20,700 1,588 Climbing FlightAware ADS-B
Mon 02:42:03 PM 38.4070 -121.5860 36° Northeast 459 528 21,500 1,588 Climbing FlightAware ADS-B
Mon 02:42:39 PM 38.4630 -121.5180 44° Northeast 466 536 22,500 1,583 Climbing FlightAware ADS-B
Mon 02:43:15 PM 38.5100 -121.4380 53° Northeast 471 542 23,400 1,543 Climbing FlightAware ADS-B
Mon 02:43:49 PM 38.5540 -121.3620 53° Northeast 476 548 24,300 1,629 Climbing FlightAware ADS-B
Mon 02:44:25 PM 38.6030 -121.2790 53° Northeast 482 555 25,300 1,500 Climbing FlightAware ADS-B
Mon 02:44:57 PM 38.6450 -121.2060 54° Northeast 488 562 26,000 1,235 Climbing FlightAware ADS-B
Mon 02:45:33 PM 38.6950 -121.1200 53° Northeast 494 568 26,700 1,250 Climbing FlightAware ADS-B
Mon 02:46:09 PM 38.7430 -121.0360 54° Northeast 499 574 27,500 1,333 Climbing FlightAware ADS-B
Mon 02:46:45 PM 38.7930 -120.9510 53° Northeast 502 578 28,300 1,324 Climbing FlightAware ADS-B
Mon 02:47:17 PM 38.8360 -120.8740 54° Northeast 503 579 29,000 1,500 Climbing FlightAware ADS-B
Mon 02:47:53 PM 38.8860 -120.7880 53° Northeast 498 573 30,000 1,588 Climbing FlightAware ADS-B
Mon 02:48:25 PM 38.9300 -120.7130 53° Northeast 497 572 30,800 1,500 Climbing FlightAware ADS-B
Mon 02:49:05 PM 38.9830 -120.6220 53° Northeast 494 568 31,800 1,459 Climbing FlightAware ADS-B
Mon 02:49:39 PM 39.0310 -120.5380 54° Northeast 494 568 32,600 1,029 Climbing FlightAware ADS-B
Mon 02:50:15 PM 39.0810 -120.4510 53° Northeast 499 574 33,000 353 Climbing FlightAware ADS-B
Mon 02:50:47 PM 39.1250 -120.3750 53° Northeast 503 579 33,000 91 Level FlightAware ADS-B
Mon 02:51:21 PM 39.1710 -120.2940 54° Northeast 505 581 33,100 833 Climbing FlightAware ADS-B
Mon 02:51:59 PM 39.2230 -120.2010 54° Northeast 500 575 34,000 1,029 Climbing FlightAware ADS-B
Mon 02:52:31 PM 39.2670 -120.1250 53° Northeast 504 580 34,300 971 Climbing FlightAware ADS-B
Mon 02:53:07 PM 39.3170 -120.0370 54° Northeast 501 577 35,100 1,151 Climbing FlightAware ADS-B
Mon 02:53:44 PM 39.3660 -119.9500 54° Northeast 501 577 35,700 892 Climbing FlightAware ADS-B
Mon 02:54:21 PM 39.4170 -119.8600 54° Northeast 504 580 36,200 696 Climbing FlightAware ADS-B
Mon 02:54:53 PM 39.4620 -119.7800 54° Northeast 506 582 36,500 600 Climbing FlightAware ADS-B
Mon 02:55:31 PM 39.5140 -119.6860 54° Northeast 509 586 36,900 429 Climbing FlightAware ADS-B
Mon 02:56:03 PM 39.5580 -119.6080 54° Northeast 512 589 37,000 88 Climbing FlightAware ADS-B
Mon 02:56:39 PM 39.6070 -119.5210 54° Northeast 515 593 37,000  Level FlightAware ADS-B
Mon 02:57:09 PM 39.6500 -119.4440 54° Northeast 517 595 37,000  Level FlightAware ADS-B
Mon 02:57:45 PM 39.7010 -119.3510 55° Northeast 518 596 37,000  Level FlightAware ADS-B
Mon 02:58:25 PM 39.7560 -119.2520 54° Northeast 520 598 37,000  Level FlightAware ADS-B
Mon 02:58:57 PM 39.7970 -119.1680 58° Northeast 512 589 37,000  Level FlightAware ADS-B
Mon 02:59:33 PM 39.8310 -119.0670 66° East 510 587 37,000  Level FlightAware ADS-B
Mon 03:00:07 PM 39.8640 -118.9730 65° Northeast 511 588 37,000  Level FlightAware ADS-B
Mon 03:00:45 PM 39.9030 -118.8650 65° Northeast 512 589 37,000  Level FlightAware ADS-B
Mon 03:01:15 PM 39.9330 -118.7830 64° Northeast 511 588 37,000  Level FlightAware ADS-B
Mon 03:01:56 PM 39.9760 -118.6670 64° Northeast 513 590 37,000  Level FlightAware ADS-B
Mon 03:02:30 PM 40.0110 -118.5720 64° Northeast 513 590 37,000  Level FlightAware ADS-B
Mon 03:03:06 PM 40.0470 -118.4730 65° Northeast 510 587 37,000  Level FlightAware ADS-B
Mon 03:03:38 PM 40.0780 -118.3840 66° East 509 586 37,000  Level FlightAware ADS-B
Mon 03:04:14 PM 40.1130 -118.2820 66° East 511 588 37,000  Level FlightAware ADS-B
Mon 03:04:46 PM 40.1430 -118.1950 66° East 513 590 37,000  Level FlightAware ADS-B
Mon 03:05:17 PM 40.1700 -118.1180 65° Northeast 513 590 37,000  Level FlightAware ADS-B
Mon 03:05:50 PM 40.2050 -118.0130 66° East 516 594 37,000  Level FlightAware ADS-B
Mon 03:06:24 PM 40.2380 -117.9140 66° East 519 597 37,000  Level FlightAware ADS-B
Mon 03:07:04 PM 40.2770 -117.8000 66° East 522 601 37,000  Level FlightAware ADS-B
Mon 03:07:53 PM 40.3210 -117.6700 66° East 522 601 37,000  Level FlightAware ADS-B
Mon 03:08:29 PM 40.3510 -117.5820 66° East 522 601 37,000  Level FlightAware ADS-B
Mon 03:09:17 PM 40.3910 -117.4630 66° East 522 601 37,000  Level FlightAware ADS-B
Mon 03:09:53 PM 40.4210 -117.3750 66° East 522 601 37,000  Level FlightAware ADS-B
Mon 03:10:29 PM 40.4510 -117.2860 66° East 522 601 37,000  Level FlightAware ADS-B
Mon 03:11:17 PM 40.4920 -117.1680 65° Northeast 522 601 37,000  Level FlightAware ADS-B
Mon 03:11:53 PM 40.5220 -117.0790 66° East 522 601 37,000  Level FlightAware ADS-B
Mon 03:12:31 PM 40.5530 -116.9850 67° East 522 601 37,000  Level FlightAware ADS-B
Mon 03:13:07 PM 40.5830 -116.8960 66° East 522 601 37,000  Level FlightAware ADS-B
Mon 03:13:43 PM 40.6130 -116.8070 66° East 522 601 37,000  Level FlightAware ADS-B
Mon 03:14:19 PM 40.6430 -116.7180 66° East 522 601 37,000  Level FlightAware ADS-B
Mon 03:14:55 PM 40.6730 -116.6290 66° East 522 601 37,000  Level FlightAware ADS-B
Mon 03:15:31 PM 40.7040 -116.5400 65° Northeast 522 601 37,000  Level FlightAware ADS-B
Mon 03:15:44 PM 40.8209 -116.2740 60° Northeast 539 620 37,000  Level FlightAware ADS-B
Mon 03:16:14 PM 40.8554 -116.1850 63° Northeast 538 619 37,000  Level FlightAware ADS-B
Mon 03:16:45 PM 40.7650 -116.3570 235° Southwest 522 601 37,000  Level FlightAware ADS-B
Mon 03:17:13 PM 40.9215 -116.0130 59° Northeast 537 618 37,000  Level FlightAware ADS-B
Mon 03:17:58 PM 40.9716 -115.8820 63° Northeast 533 613 37,000  Level FlightAware ADS-B
Mon 03:18:46 PM 41.0237 -115.7440 63° Northeast 531 611 37,000  Level FlightAware ADS-B
Mon 03:19:17 PM 41.0575 -115.6550 63° Northeast 530 610 37,000 80 Level FlightAware ADS-B
Mon 03:20:01 PM 41.1050 -115.5280 64° Northeast 528 608 37,100 211 Climbing FlightAware ADS-B
Mon 03:20:14 PM 41.1199 -115.4890 63° Northeast 531 611 37,200 682 Climbing FlightAware ADS-B
Mon 03:20:45 PM 41.1541 -115.3970 64° Northeast 531 611 37,600 677 Climbing FlightAware ADS-B
Mon 03:21:16 PM 41.1873 -115.3080 64° Northeast 532 612 37,900 393 Climbing FlightAware ADS-B
Mon 03:21:46 PM 41.2204 -115.2190 64° Northeast 534 615 38,000 92 Climbing FlightAware ADS-B
Mon 03:22:21 PM 41.2583 -115.1170 64° Northeast 534 615 38,000  Level FlightAware ADS-B
Mon 03:22:51 PM 41.2908 -115.0290 64° Northeast 532 612 38,000  Level FlightAware ADS-B
Mon 03:23:34 PM 41.3369 -114.9040 64° Northeast 533 613 38,000  Level FlightAware ADS-B
Mon 03:24:13 PM 41.3730 -114.8040 64° Northeast 532 612 38,000  Level FlightAware ADS-B
Mon 03:24:23 PM 41.3898 -114.7600 63° Northeast 533 613 38,000  Level FlightAware ADS-B
Mon 03:24:59 PM 41.4281 -114.6550 64° Northeast 530 610 38,000  Level FlightAware ADS-B
Mon 03:25:35 PM 41.4662 -114.5500 64° Northeast 533 613 38,000  Level FlightAware ADS-B
Mon 03:26:05 PM 41.4985 -114.4610 64° Northeast 533 613 38,000  Level FlightAware ADS-B
Mon 03:26:35 PM 41.5309 -114.3710 64° Northeast 533 613 38,000  Level FlightAware ADS-B
Mon 03:27:05 PM 41.5630 -114.2820 64° Northeast 532 612 38,000  Level FlightAware ADS-B
Mon 03:27:37 PM 41.5961 -114.1900 64° Northeast 530 610 38,000  Level FlightAware ADS-B
Mon 03:28:08 PM 41.6294 -114.0960 65° Northeast 530 610 38,000  Level FlightAware ADS-B
Mon 03:28:39 PM 41.6621 -114.0050 64° Northeast 530 610 38,000  Level FlightAware ADS-B
Mon 03:29:15 PM 41.6996 -113.8990 65° Northeast 529 609 38,000  Level FlightAware ADS-B
Mon 03:29:46 PM 41.7313 -113.8090 65° Northeast 529 609 38,000  Level FlightAware ADS-B
Mon 03:30:16 PM 41.7630 -113.7190 65° Northeast 529 609 38,000  Level FlightAware ADS-B
Mon 03:30:46 PM 41.7944 -113.6310 64° Northeast 529 609 38,000  Level FlightAware ADS-B
Mon 03:31:24 PM 41.8338 -113.5180 65° Northeast 529 609 38,000  Level FlightAware ADS-B
Mon 03:32:06 PM 41.8770 -113.3930 65° Northeast 529 609 38,000  Level FlightAware ADS-B
Mon 03:32:40 PM 41.9090 -113.3020 65° Northeast 529 609 38,000  Level FlightAware ADS-B
Mon 03:33:18 PM 41.9510 -113.1810 65° Northeast 527 606 38,000  Level FlightAware ADS-B
Mon 03:33:29 PM 41.9626 -113.1470 65° Northeast 529 609 38,000  Level FlightAware ADS-B
Mon 03:34:24 PM 42.0187 -112.9840 65° Northeast 529 609 38,000  Level FlightAware ADS-B
Mon 03:35:02 PM 42.0560 -112.8740 65° Northeast 525 604 38,000  Level FlightAware ADS-B
Mon 03:35:28 PM 42.0833 -112.7950 65° Northeast 526 605 38,000  Level FlightAware ADS-B
Mon 03:36:03 PM 42.1186 -112.6920 65° Northeast 528 608 38,000  Level FlightAware ADS-B
Mon 03:36:35 PM 42.1509 -112.5960 66° East 528 608 38,000  Level FlightAware ADS-B
Mon 03:37:39 PM 42.2151 -112.4050 66° East 528 608 38,000  Level FlightAware ADS-B
Mon 03:38:13 PM 42.2493 -112.3010 66° East 527 606 38,000  Level FlightAware ADS-B
Mon 03:38:53 PM 42.2880 -112.1820 66° East 526 605 38,000  Level FlightAware ADS-B
Mon 03:39:41 PM 42.3343 -112.0390 66° East 526 605 38,000  Level FlightAware ADS-B
Mon 03:40:11 PM 42.3640 -111.9470 66° East 526 605 38,000  Level FlightAware ADS-B
Mon 03:40:42 PM 42.3941 -111.8540 66° East 526 605 38,000  Level FlightAware ADS-B
Mon 03:41:19 PM 42.4299 -111.7420 67° East 526 605 38,000  Level FlightAware ADS-B
Mon 03:42:15 PM 42.4838 -111.5740 66° East 525 604 38,000  Level FlightAware ADS-B
Mon 03:42:46 PM 42.5129 -111.4820 67° East 525 604 38,000  Level FlightAware ADS-B
Mon 03:43:34 PM 42.5580 -111.3400 67° East 526 605 38,000  Level FlightAware ADS-B
Mon 03:44:15 PM 42.5930 -111.2340 66° East 526 605 38,000  Level FlightAware ADS-B
Mon 03:44:52 PM 42.6240 -111.1390 66° East 526 605 38,000  Level FlightAware ADS-B
Mon 03:45:28 PM 42.6540 -111.0470 66° East 526 605 38,000  Level FlightAware ADS-B
Mon 03:46:04 PM 42.6840 -110.9540 66° East 526 605 38,000  Level FlightAware ADS-B
Mon 03:46:38 PM 42.7130 -110.8670 66° East 526 605 38,000  Level FlightAware ADS-B
Mon 03:47:15 PM 42.7440 -110.7710 66° East 526 605 38,000  Level FlightAware ADS-B
Mon 03:48:01 PM 42.7830 -110.6530 66° East 526 605 38,000  Level FlightAware ADS-B
Mon 03:48:37 PM 42.8130 -110.5600 66° East 526 605 38,000  Level FlightAware ADS-B
Mon 03:49:15 PM 42.8450 -110.4620 66° East 526 605 38,000  Level FlightAware ADS-B
Mon 03:49:51 PM 42.8750 -110.3690 66° East 526 605 38,000  Level FlightAware ADS-B
Mon 03:50:28 PM 42.9060 -110.2740 66° East 526 605 38,000  Level FlightAware ADS-B
Mon 03:51:05 PM 42.9370 -110.1790 66° East 526 605 38,000  Level FlightAware ADS-B
Mon 03:51:39 PM 42.9660 -110.0910 66° East 526 605 38,000  Level FlightAware ADS-B
Mon 03:52:16 PM 42.9970 -109.9950 66° East 526 605 38,000  Level FlightAware ADS-B
Mon 03:52:53 PM 43.0280 -109.9000 66° East 526 605 38,000  Level FlightAware ADS-B
Mon 03:53:29 PM 43.0580 -109.8060 66° East 526 605 38,000  Level FlightAware ADS-B
Mon 03:54:34 PM 43.1656 -109.3392 66° East 523 602 38,000  Level Salt Lake Center
Mon 03:55:36 PM 43.2192 -109.1550 68° East 522 601 38,000  Level Salt Lake Center
Mon 03:56:37 PM 43.2725 -108.9728 68° East 519 597 38,000  Level Salt Lake Center
Mon 03:57:39 PM 43.3247 -108.7869 69° East 522 601 38,000  Level Salt Lake Center
Mon 03:58:41 PM 43.3769 -108.6056 68° East 515 593 38,000  Level Salt Lake Center
Mon 03:59:43 PM 43.4303 -108.4219 68° East 518 596 38,000  Level Salt Lake Center
Mon 04:01:46 PM 43.4983 -108.0019 77° East 514 592 38,000  Level Salt Lake Center
Mon 04:02:48 PM 43.5211 -107.8108 81° East 510 587 38,000 484 Level Salt Lake Center
Mon 04:03:50 PM 43.5428 -107.6189 81° East 509 586 39,000 484 Climbing Salt Lake Center
Mon 04:04:52 PM 43.5644 -107.4344 81° East 497 572 39,000  Level Salt Lake Center
Mon 04:05:54 PM 43.5850 -107.2444 81° East 502 578 39,000  Level Salt Lake Center
Mon 04:06:56 PM 43.6050 -107.0533 82° East 507 583 39,000  Level Salt Lake Center
Mon 04:07:57 PM 43.6325 -106.8267 80° East 510 587 39,000  Level Salt Lake Center
Mon 04:08:59 PM 43.6528 -106.6394 81° East 513 590 39,000  Level Salt Lake Center
Mon 04:10:01 PM 43.6750 -106.4217 82° East 514 592 39,000  Level Salt Lake Center
Mon 04:11:03 PM 43.6939 -106.2367 82° East 510 587 39,000  Level Salt Lake Center
Mon 04:12:05 PM 43.7169 -106.0222 81° East 506 582 39,000  Level Salt Lake Center
Mon 04:13:06 PM 43.7356 -105.8386 82° East 502 578 39,000  Level Salt Lake Center
Mon 04:14:08 PM 43.7547 -105.6531 82° East 505 581 39,000  Level Salt Lake Center
Mon 04:15:10 PM 43.7750 -105.4414 82° East 501 577 39,000  Level Salt Lake Center
Mon 04:16:12 PM 43.7919 -105.2622 82° East 495 570 39,000  Level Salt Lake Center
Mon 04:17:14 PM 43.8111 -105.0506 83° East 494 568 39,000  Level Salt Lake Center
Mon 04:18:16 PM 43.8267 -104.8706 83° East 492 566 39,000  Level Salt Lake Center
Mon 04:19:17 PM 43.8442 -104.6611 83° East 491 565 39,000  Level Salt Lake Center
Mon 04:20:19 PM 43.8594 -104.4814 83° East 490 564 39,000  Level Salt Lake Center
Mon 04:21:21 PM 43.8753 -104.3017 83° East 491 565 39,000  Level Salt Lake Center
Mon 04:22:23 PM 43.8933 -104.0914 83° East 491 565 39,000  Level Salt Lake Center
Mon 04:23:50 PM 43.9117 -103.8522 84° East 493 567 39,000  Level Denver Center
Mon 04:24:53 PM 43.9286 -103.6433 84° East 489 563 39,000  Level Denver Center
Mon 04:25:54 PM 43.9461 -103.4336 83° East 491 565 39,000  Level Denver Center
Mon 04:26:56 PM 43.9600 -103.2547 84° East 488 562 39,000  Level Denver Center
Mon 04:27:58 PM 43.9769 -103.0453 84° East 489 563 39,000  Level Denver Center
Mon 04:29:00 PM 43.9747 -102.8631 91° East 491 565 39,000  Level Denver Center
Mon 04:30:01 PM 43.9694 -102.6683 92° East 488 562 39,000  Level Denver Center
Mon 04:31:03 PM 43.9594 -102.4775 94° East 493 567 39,000  Level Denver Center
Mon 04:32:05 PM 43.9539 -102.2897 92° East 492 566 39,000  Level Denver Center
Mon 04:33:07 PM 43.9439 -102.1003 94° East 493 567 39,000  Level Denver Center
Mon 04:34:09 PM 43.9353 -101.8758 93° East 488 562 39,000  Level Denver Center
Mon 04:35:11 PM 43.9283 -101.6903 93° East 485 558 39,000  Level Denver Center
Mon 04:36:13 PM 43.9281 -101.5122 90° East 481 554 39,000  Level Denver Center
Mon 04:37:15 PM 43.9219 -101.3283 93° East 480 552 39,000  Level Denver Center
Mon 04:38:16 PM 43.9133 -101.1478 94° East 474 545 39,000  Level Minneapolis Center
Mon 04:39:19 PM 43.9050 -100.9583 93° East 485 558 39,000  Level Denver Center
Mon 04:40:20 PM 43.8956 -100.7372 93° East 485 558 39,000  Level Denver Center
Mon 04:41:22 PM 43.8875 -100.5569 93° East 474 545 39,000  Level Denver Center
Mon 04:42:24 PM 43.8781 -100.3714 94° East 484 557 39,000  Level Minneapolis Center
Mon 04:43:26 PM 43.8706 -100.1889 93° East 481 554 39,000  Level Minneapolis Center
Mon 04:44:28 PM 43.8631 -100.0425 94° East 479 551 39,000  Level Minneapolis Center
Mon 04:45:31 PM 43.8514 -99.8236 94° East 478 550 39,000  Level Minneapolis Center
Mon 04:46:33 PM 43.8381 -99.6025 95° East 480 552 39,000  Level Minneapolis Center
Mon 04:47:35 PM 43.8278 -99.4192 94° East 480 552 39,000  Level Minneapolis Center
Mon 04:48:37 PM 43.8181 -99.2356 94° East 480 552 39,000  Level Minneapolis Center
Mon 04:53:50 PM 43.7580 -98.2610 94° East 480 552 39,000  Level FlightAware ADS-B
Mon 04:54:25 PM 43.7510 -98.1550 95° East 480 552 39,000  Level FlightAware ADS-B
Mon 04:55:08 PM 43.7440 -98.0440 95° East 480 552 39,000  Level FlightAware ADS-B
Mon 04:55:44 PM 43.7380 -97.9500 95° East 480 552 39,000  Level FlightAware ADS-B
Mon 04:56:20 PM 43.7320 -97.8570 95° East 480 552 39,000  Level FlightAware ADS-B
Mon 04:57:06 PM 43.7170 -97.6610 96° East 482 555 39,000  Level FlightAware ADS-B
Mon 04:57:40 PM 43.7110 -97.5700 95° East 482 555 39,000  Level FlightAware ADS-B
Mon 04:58:13 PM 43.7020 -97.4610 96° East 481 554 39,000  Level FlightAware ADS-B
Mon 04:58:53 PM 43.6930 -97.3370 96° East 482 555 39,000  Level FlightAware ADS-B
Mon 04:59:29 PM 43.6850 -97.2310 96° East 482 555 39,000  Level FlightAware ADS-B
Mon 05:00:01 PM 43.6770 -97.1300 96° East 482 555 39,000  Level FlightAware ADS-B
Mon 05:00:31 PM 43.6700 -97.0410 96° East 482 555 39,000  Level FlightAware ADS-B
Mon 05:01:14 PM 43.6590 -96.9050 96° East 482 555 39,000  Level FlightAware ADS-B
Mon 05:01:45 PM 43.6500 -96.8110 98° East 483 556 39,000  Level FlightAware ADS-B
Mon 05:02:22 PM 43.6190 -96.7030 112° Southeast 486 559 39,000  Level FlightAware ADS-B
Mon 05:02:53 PM 43.5880 -96.6240 118° Southeast 487 560 39,000  Level FlightAware ADS-B
Mon 05:03:31 PM 43.5450 -96.5200 120° Southeast 488 562 39,000  Level FlightAware ADS-B
Mon 05:04:07 PM 43.5050 -96.4210 119° Southeast 488 562 39,000  Level FlightAware ADS-B
Mon 05:04:43 PM 43.4650 -96.3240 120° Southeast 487 560 39,000  Level FlightAware ADS-B
Mon 05:05:24 PM 43.4200 -96.2130 119° Southeast 487 560 39,000  Level FlightAware ADS-B
Mon 05:05:59 PM 43.3820 -96.1200 119° Southeast 487 560 39,000  Level FlightAware ADS-B
Mon 05:06:36 PM 43.3400 -96.0170 119° Southeast 486 559 39,000  Level FlightAware ADS-B
Mon 05:07:07 PM 43.3070 -95.9350 119° Southeast 485 558 39,000  Level FlightAware ADS-B
Mon 05:07:43 PM 43.2820 -95.8320 108° East 482 555 39,000  Level FlightAware ADS-B
Mon 05:08:21 PM 43.2730 -95.7150 96° East 480 552 39,000  Level FlightAware ADS-B
Mon 05:08:53 PM 43.2670 -95.6200 95° East 480 552 39,000  Level FlightAware ADS-B
Mon 05:09:24 PM 43.2610 -95.5260 95° East 479 551 39,000  Level FlightAware ADS-B
Mon 05:10:02 PM 43.2530 -95.4100 95° East 479 551 39,000  Level FlightAware ADS-B
Mon 05:10:37 PM 43.2470 -95.3100 95° East 479 551 39,000  Level FlightAware ADS-B
Mon 05:11:14 PM 43.2390 -95.1910 95° East 479 551 39,000  Level FlightAware ADS-B
Mon 05:11:56 PM 43.2310 -95.0640 95° East 480 552 39,000  Level FlightAware ADS-B
Mon 05:12:31 PM 43.2240 -94.9610 95° East 480 552 39,000  Level FlightAware ADS-B
Mon 05:13:03 PM 43.2170 -94.8670 96° East 480 552 39,000  Level FlightAware ADS-B
Mon 05:13:39 PM 43.2090 -94.7560 96° East 480 552 39,000  Level FlightAware ADS-B
Mon 05:14:17 PM 43.2010 -94.6420 95° East 480 552 39,000  Level FlightAware ADS-B
Mon 05:14:53 PM 43.1930 -94.5320 96° East 479 551 39,000  Level FlightAware ADS-B
Mon 05:15:25 PM 43.1860 -94.4350 96° East 479 551 39,000  Level FlightAware ADS-B
Mon 05:16:00 PM 43.1780 -94.3280 96° East 479 551 39,000  Level FlightAware ADS-B
Mon 05:16:35 PM 43.1700 -94.2240 96° East 479 551 39,000  Level FlightAware ADS-B
Mon 05:17:13 PM 43.1620 -94.1140 96° East 478 550 39,000  Level FlightAware ADS-B
Mon 05:17:45 PM 43.1540 -94.0190 97° East 478 550 39,000  Level FlightAware ADS-B
Mon 05:18:19 PM 43.1450 -93.9100 96° East 479 551 39,000  Level FlightAware ADS-B
Mon 05:18:55 PM 43.1360 -93.8040 97° East 479 551 39,000  Level FlightAware ADS-B
Mon 05:19:33 PM 43.1270 -93.6920 96° East 479 551 39,000  Level FlightAware ADS-B
Mon 05:20:06 PM 43.1180 -93.5900 97° East 479 551 39,000  Level FlightAware ADS-B
Mon 05:20:43 PM 43.1090 -93.4870 97° East 478 550 39,000  Level FlightAware ADS-B
Mon 05:21:15 PM 43.1010 -93.3890 96° East 479 551 39,000  Level FlightAware ADS-B
Mon 05:21:51 PM 43.0910 -93.2790 97° East 479 551 39,000  Level FlightAware ADS-B
Mon 05:22:25 PM 43.0820 -93.1740 97° East 479 551 39,000  Level FlightAware ADS-B
Mon 05:23:00 PM 43.0730 -93.0680 97° East 479 551 39,000  Level FlightAware ADS-B
Mon 05:23:37 PM 43.0630 -92.9590 97° East 479 551 39,000  Level FlightAware ADS-B
Mon 05:24:11 PM 43.0530 -92.8570 98° East 479 551 39,000  Level FlightAware ADS-B
Mon 05:24:44 PM 43.0440 -92.7570 97° East 479 551 39,000  Level FlightAware ADS-B
Mon 05:25:18 PM 43.0350 -92.6580 97° East 479 551 39,000  Level FlightAware ADS-B
Mon 05:25:56 PM 43.0240 -92.5380 97° East 479 551 39,000  Level FlightAware ADS-B
Mon 05:26:32 PM 43.0140 -92.4350 98° East 480 552 39,000  Level FlightAware ADS-B
Mon 05:27:04 PM 43.0040 -92.3370 98° East 479 551 39,000  Level FlightAware ADS-B
Mon 05:27:44 PM 42.9930 -92.2230 97° East 478 550 39,000  Level FlightAware ADS-B
Mon 05:28:15 PM 42.9840 -92.1230 97° East 478 550 39,000  Level FlightAware ADS-B
Mon 05:28:52 PM 42.9730 -92.0150 98° East 478 550 39,000  Level FlightAware ADS-B
Mon 05:29:27 PM 42.9620 -91.9090 98° East 477 549 39,000  Level FlightAware ADS-B
Mon 05:30:04 PM 42.9510 -91.8010 98° East 477 549 39,000  Level FlightAware ADS-B
Mon 05:30:36 PM 42.9420 -91.7050 97° East 477 549 39,000  Level FlightAware ADS-B
Mon 05:31:12 PM 42.9300 -91.5960 99° East 477 549 39,000  Level FlightAware ADS-B
Mon 05:31:48 PM 42.9200 -91.4930 98° East 476 548 39,000  Level FlightAware ADS-B
Mon 05:32:21 PM 42.9090 -91.3930 99° East 476 548 39,000  Level FlightAware ADS-B
Mon 05:32:56 PM 42.8990 -91.2910 98° East 476 548 39,000  Level FlightAware ADS-B
Mon 05:33:32 PM 42.8870 -91.1820 99° East 476 548 39,000  Level FlightAware ADS-B
Mon 05:34:08 PM 42.8760 -91.0800 98° East 476 548 39,000  Level FlightAware ADS-B
Mon 05:34:38 PM 42.8660 -90.9870 98° East 475 547 39,000  Level FlightAware ADS-B
Mon 05:35:16 PM 42.8540 -90.8760 98° East 475 547 39,000  Level FlightAware ADS-B
Mon 05:35:51 PM 42.8420 -90.7720 99° East 474 545 39,000  Level FlightAware ADS-B
Mon 05:36:28 PM 42.8350 -90.6660 95° East 473 544 39,000  Level FlightAware ADS-B
Mon 05:37:00 PM 42.8310 -90.5720 93° East 473 544 39,000  Level FlightAware ADS-B
Mon 05:37:37 PM 42.8280 -90.4580 92° East 472 543 39,000  Level FlightAware ADS-B
Mon 05:38:10 PM 42.8260 -90.3630 92° East 472 543 39,000  Level FlightAware ADS-B
Mon 05:38:39 PM 42.8250 -90.2800 91° East 472 543 39,000  Level FlightAware ADS-B
Mon 05:39:16 PM 42.8220 -90.1610 92° East 471 542 39,000  Level FlightAware ADS-B
Mon 05:39:46 PM 42.8200 -90.0740 92° East 471 542 39,000  Level FlightAware ADS-B
Mon 05:40:25 PM 42.8170 -89.9640 92° East 471 542 39,000  Level FlightAware ADS-B
Mon 05:41:02 PM 42.8140 -89.8490 92° East 471 542 39,000  Level FlightAware ADS-B
Mon 05:41:34 PM 42.8110 -89.7600 93° East 471 542 39,000  Level FlightAware ADS-B
Mon 05:42:11 PM 42.8080 -89.6470 92° East 471 542 39,000  Level FlightAware ADS-B
Mon 05:42:34 PM 42.8050 -89.5770 93° East 471 542 39,000  Level FlightAware ADS-B
Mon 05:43:12 PM 42.8020 -89.4640 92° East 472 543 39,000  Level FlightAware ADS-B
Mon 05:43:45 PM 42.7990 -89.3710 92° East 473 544 39,000  Level FlightAware ADS-B
Mon 05:44:22 PM 42.7950 -89.2640 93° East 473 544 39,000  Level FlightAware ADS-B
Mon 05:45:00 PM 42.7910 -89.1480 93° East 473 544 39,000  Level FlightAware ADS-B
Mon 05:45:34 PM 42.7880 -89.0480 92° East 473 544 39,000  Level FlightAware ADS-B
Mon 05:46:10 PM 42.7840 -88.9360 93° East 473 544 39,000  Level FlightAware ADS-B
Mon 05:46:42 PM 42.7800 -88.8490 94° East 474 545 39,000  Level FlightAware ADS-B
Mon 05:47:16 PM 42.7760 -88.7450 93° East 474 545 39,000  Level FlightAware ADS-B
Mon 05:47:55 PM 42.7720 -88.6280 93° East 474 545 39,000  Level FlightAware ADS-B
Mon 05:48:24 PM 42.7680 -88.5390 93° East 474 545 39,000  Level FlightAware ADS-B
Mon 05:49:03 PM 42.7640 -88.4290 93° East 474 545 39,000  Level FlightAware ADS-B
Mon 05:49:38 PM 42.7600 -88.3240 93° East 472 543 39,000  Level FlightAware ADS-B
Mon 05:50:10 PM 42.7650 -88.2230 86° East 473 544 39,000  Level FlightAware ADS-B
Mon 05:50:49 PM 42.7760 -88.1160 82° East 475 547 39,000  Level FlightAware ADS-B
Mon 05:51:24 PM 42.7880 -88.0100 81° East 476 548 39,000  Level FlightAware ADS-B
Mon 05:51:54 PM 42.7970 -87.9200 82° East 478 550 39,000  Level FlightAware ADS-B
Mon 05:52:32 PM 42.8100 -87.8030 81° East 478 550 39,000  Level FlightAware ADS-B
Mon 05:53:03 PM 42.8200 -87.7130 81° East 478 550 39,000  Level FlightAware ADS-B
Mon 05:53:44 PM 42.8330 -87.5940 81° East 477 549 39,000  Level FlightAware ADS-B
Mon 05:54:17 PM 42.8440 -87.4940 81° East 478 550 39,000  Level FlightAware ADS-B
Mon 05:54:53 PM 42.8560 -87.3870 81° East 478 550 39,000  Level FlightAware ADS-B
Mon 05:55:23 PM 42.8650 -87.2970 82° East 479 551 39,000  Level FlightAware ADS-B
Mon 05:55:59 PM 42.8770 -87.1880 81° East 480 552 39,000  Level FlightAware ADS-B
Mon 05:56:37 PM 42.8880 -87.0830 82° East 481 554 39,000  Level FlightAware ADS-B
Mon 05:57:11 PM 42.8980 -86.9790 82° East 482 555 39,000  Level FlightAware ADS-B
Mon 05:57:43 PM 42.9090 -86.8780 82° East 484 557 39,000  Level FlightAware ADS-B
Mon 05:58:24 PM 42.9210 -86.7560 82° East 486 559 39,000  Level FlightAware ADS-B
Mon 05:58:59 PM 42.9320 -86.6520 82° East 488 562 39,000  Level FlightAware ADS-B
Mon 05:59:31 PM 42.9410 -86.5540 83° East 490 564 39,000  Level FlightAware ADS-B
Mon 06:00:13 PM 42.9550 -86.4190 82° East 493 567 39,000  Level FlightAware ADS-B
Mon 06:00:52 PM 42.9660 -86.3050 82° East 496 571 39,000  Level FlightAware ADS-B
Mon 06:01:25 PM 42.9760 -86.1990 83° East 498 573 39,000  Level FlightAware ADS-B
Mon 06:01:57 PM 42.9860 -86.0960 82° East 501 577 39,000  Level FlightAware ADS-B
Mon 06:02:33 PM 42.9970 -85.9840 82° East 504 580 39,000  Level FlightAware ADS-B
Mon 06:03:09 PM 43.0070 -85.8710 83° East 507 583 39,000  Level FlightAware ADS-B
Mon 06:03:45 PM 43.0180 -85.7570 82° East 509 586 39,000  Level FlightAware ADS-B
Mon 06:04:17 PM 43.0270 -85.6550 83° East 511 588 39,000  Level FlightAware ADS-B
Mon 06:04:55 PM 43.0380 -85.5320 83° East 513 590 39,000  Level FlightAware ADS-B
Mon 06:05:31 PM 43.0480 -85.4170 83° East 515 593 39,000  Level FlightAware ADS-B
Mon 06:06:05 PM 43.0580 -85.3050 83° East 517 595 39,000  Level FlightAware ADS-B
Mon 06:06:39 PM 43.0680 -85.1960 83° East 518 596 39,000  Level FlightAware ADS-B
Mon 06:07:17 PM 43.0790 -85.0720 83° East 520 598 39,000  Level FlightAware ADS-B
Mon 06:07:49 PM 43.0870 -84.9680 84° East 521 600 39,000  Level FlightAware ADS-B
Mon 06:08:26 PM 43.0970 -84.8510 83° East 522 601 39,000  Level FlightAware ADS-B
Mon 06:09:01 PM 43.1070 -84.7340 83° East 523 602 39,000  Level FlightAware ADS-B
Mon 06:09:33 PM 43.1160 -84.6260 83° East 524 603 39,000  Level FlightAware ADS-B
Mon 06:10:09 PM 43.1250 -84.5120 84° East 523 602 39,000  Level FlightAware ADS-B
Mon 06:10:43 PM 43.1340 -84.3990 84° East 523 602 39,000  Level FlightAware ADS-B
Mon 06:10:59 PM 43.1350 -84.3460 89° East 524 603 39,000  Level FlightAware ADS-B
Mon 06:11:49 PM 43.1310 -84.1790 92° East 523 602 39,000  Level FlightAware ADS-B
Mon 06:12:23 PM 43.1290 -84.0740 91° East 521 600 39,000  Level FlightAware ADS-B
Mon 06:13:01 PM 43.1270 -83.9410 91° East 518 596 39,000  Level FlightAware ADS-B
Mon 06:13:37 PM 43.1250 -83.8260 91° East 516 594 39,000  Level FlightAware ADS-B
Mon 06:14:13 PM 43.1230 -83.7080 91° East 514 592 39,000  Level FlightAware ADS-B
Mon 06:14:45 PM 43.1220 -83.6100 91° East 513 590 39,000  Level FlightAware ADS-B
Mon 06:15:19 PM 43.1200 -83.4980 91° East 514 592 39,000  Level FlightAware ADS-B
Mon 06:15:55 PM 43.1180 -83.3760 91° East 513 590 39,000  Level FlightAware ADS-B
Mon 06:16:31 PM 43.1160 -83.2650 91° East 513 590 39,000  Level FlightAware ADS-B
Mon 06:17:05 PM 43.1140 -83.1560 91° East 514 592 39,000  Level FlightAware ADS-B
Mon 06:17:41 PM 43.1110 -83.0360 92° East 515 593 39,000  Level FlightAware ADS-B
Mon 06:18:17 PM 43.1080 -82.9160 92° East 516 594 39,000  Level FlightAware ADS-B
Mon 06:18:49 PM 43.1060 -82.8120 91° East 517 595 39,000  Level FlightAware ADS-B
Mon 06:19:27 PM 43.1030 -82.6880 92° East 518 596 39,000  Level FlightAware ADS-B
Mon 06:19:59 PM 43.1000 -82.5850 92° East 520 598 39,000  Level FlightAware ADS-B
Mon 06:20:33 PM 43.0970 -82.4750 92° East 521 600 39,000  Level FlightAware ADS-B
Mon 06:21:09 PM 43.0940 -82.3580 92° East 521 600 39,000  Level FlightAware ADS-B
Mon 06:21:46 PM 43.0910 -82.2430 92° East 522 601 39,000  Level FlightAware ADS-B
Mon 06:22:21 PM 43.0870 -82.1250 93° East 523 602 39,000  Level FlightAware ADS-B
Mon 06:22:58 PM 43.0840 -82.0060 92° East 523 602 39,000  Level FlightAware ADS-B
Mon 06:23:31 PM 43.0800 -81.8940 93° East 524 603 39,000  Level FlightAware ADS-B
Mon 06:24:14 PM 43.0750 -81.7450 93° East 522 601 39,000  Level FlightAware ADS-B
Mon 06:24:51 PM 43.0710 -81.6240 93° East 522 601 39,000  Level FlightAware ADS-B
Mon 06:25:25 PM 43.0670 -81.5110 93° East 522 601 39,000  Level FlightAware ADS-B
Mon 06:26:01 PM 43.0630 -81.3940 93° East 521 600 39,000  Level FlightAware ADS-B
Mon 06:26:33 PM 43.0590 -81.2850 93° East 521 600 39,000  Level FlightAware ADS-B
Mon 06:27:09 PM 43.0540 -81.1700 93° East 522 601 39,000  Level FlightAware ADS-B
Mon 06:27:45 PM 43.0500 -81.0520 93° East 522 601 39,000  Level FlightAware ADS-B
Mon 06:28:17 PM 43.0460 -80.9460 93° East 523 602 39,000  Level FlightAware ADS-B
Mon 06:28:53 PM 43.0410 -80.8270 93° East 523 602 39,000  Level FlightAware ADS-B
Mon 06:29:29 PM 43.0360 -80.7080 93° East 524 603 39,000  Level FlightAware ADS-B
Mon 06:30:05 PM 43.0310 -80.5890 93° East 526 605 39,000  Level FlightAware ADS-B
Mon 06:30:39 PM 43.0260 -80.4760 93° East 527 606 39,000  Level FlightAware ADS-B
Mon 06:31:15 PM 43.0200 -80.3570 94° East 529 609 39,000  Level FlightAware ADS-B
Mon 06:31:48 PM 43.0150 -80.2450 93° East 531 611 39,000  Level FlightAware ADS-B
Mon 06:32:23 PM 43.0090 -80.1280 94° East 531 611 39,000  Level FlightAware ADS-B
Mon 06:33:00 PM 43.0040 -80.0100 93° East 531 611 39,000  Level FlightAware ADS-B
Mon 06:33:33 PM 42.9980 -79.8950 94° East 532 612 39,000  Level FlightAware ADS-B
Mon 06:34:09 PM 42.9920 -79.7750 94° East 533 613 39,000  Level FlightAware ADS-B
Mon 06:34:45 PM 42.9860 -79.6560 94° East 534 615 39,000  Level FlightAware ADS-B
Mon 06:35:17 PM 42.9800 -79.5490 94° East 534 615 39,000  Level FlightAware ADS-B
Mon 06:35:53 PM 42.9740 -79.4280 94° East 535 616 39,000  Level FlightAware ADS-B
Mon 06:36:30 PM 42.9670 -79.3030 94° East 536 617 39,000  Level FlightAware ADS-B
Mon 06:37:06 PM 42.9600 -79.1810 94° East 536 617 39,000  Level FlightAware ADS-B
Mon 06:37:38 PM 42.9540 -79.0730 94° East 537 618 39,000  Level FlightAware ADS-B
Mon 06:38:16 PM 42.9460 -78.9430 95° East 538 619 39,000  Level FlightAware ADS-B
Mon 06:38:48 PM 42.9330 -78.8380 100° East 540 621 39,000  Level FlightAware ADS-B
Mon 06:39:24 PM 42.9150 -78.7180 102° East 540 621 39,000  Level FlightAware ADS-B
Mon 06:39:59 PM 42.8970 -78.6050 102° East 540 621 39,000  Level FlightAware ADS-B
Mon 06:40:34 PM 42.8780 -78.4880 102° East 538 619 39,000  Level FlightAware ADS-B
Mon 06:41:11 PM 42.8590 -78.3660 102° East 537 618 39,000  Level FlightAware ADS-B
Mon 06:41:44 PM 42.8420 -78.2530 102° East 536 617 39,000  Level FlightAware ADS-B
Mon 06:42:16 PM 42.8260 -78.1510 102° East 536 617 39,000  Level FlightAware ADS-B
Mon 06:43:00 PM 42.8030 -78.0060 102° East 535 616 39,000  Level FlightAware ADS-B
Mon 06:43:34 PM 42.7850 -77.8960 103° East 534 615 39,000  Level FlightAware ADS-B
Mon 06:44:10 PM 42.7660 -77.7740 102° East 532 612 39,000  Level FlightAware ADS-B
Mon 06:44:46 PM 42.7470 -77.6600 103° East 530 610 39,000  Level FlightAware ADS-B
Mon 06:45:22 PM 42.7280 -77.5420 102° East 527 606 39,000  Level FlightAware ADS-B
Mon 06:45:54 PM 42.7110 -77.4410 103° East 525 604 39,000  Level FlightAware ADS-B
Mon 06:46:30 PM 42.6910 -77.3220 103° East 523 602 39,000  Level FlightAware ADS-B
Mon 06:47:06 PM 42.6730 -77.2110 102° East 520 598 39,000  Level FlightAware ADS-B
Mon 06:47:42 PM 42.6540 -77.1000 103° East 517 595 39,000  Level FlightAware ADS-B
Mon 06:48:14 PM 42.6360 -76.9950 103° East 515 593 39,000  Level FlightAware ADS-B
Mon 06:48:42 PM 42.6210 -76.9060 103° East 513 590 39,000  Level FlightAware ADS-B
Mon 06:49:18 PM 42.6020 -76.7950 103° East 510 587 39,000  Level FlightAware ADS-B
Mon 06:49:54 PM 42.5830 -76.6840 103° East 508 585 39,000  Level FlightAware ADS-B
Mon 06:50:28 PM 42.5640 -76.5760 103° East 506 582 39,000  Level FlightAware ADS-B
Mon 06:51:02 PM 42.5460 -76.4710 103° East 504 580 39,000  Level FlightAware ADS-B
Mon 06:51:38 PM 42.5260 -76.3600 104° East 504 580 39,000  Level FlightAware ADS-B
Mon 06:52:16 PM 42.4920 -76.2520 113° Southeast 510 587 39,000  Level FlightAware ADS-B
Mon 06:52:52 PM 42.4490 -76.1520 120° Southeast 509 586 39,000  Level FlightAware ADS-B
Mon 06:53:24 PM 42.4090 -76.0650 122° Southeast 508 585 39,000  Level FlightAware ADS-B
Mon 06:53:58 PM 42.3680 -75.9770 122° Southeast 507 583 39,000  Level FlightAware ADS-B
Mon 06:54:36 PM 42.3210 -75.8740 122° Southeast 507 583 39,000  Level FlightAware ADS-B
Mon 06:55:12 PM 42.2760 -75.7760 122° Southeast 507 583 39,000 -88 Level FlightAware ADS-B
Mon 06:55:44 PM 42.2370 -75.6910 122° Southeast 507 583 38,900 -882 Descending FlightAware ADS-B
Mon 06:56:20 PM 42.1920 -75.5930 122° Southeast 516 594 38,000 -1,417 Descending FlightAware ADS-B
Mon 06:56:56 PM 42.1570 -75.4880 114° Southeast 516 594 37,200 -1,235 Descending FlightAware ADS-B
Mon 06:57:28 PM 42.1310 -75.3920 110° East 512 589 36,600 -1,254 Descending FlightAware ADS-B
Mon 06:58:03 PM 42.1030 -75.2900 110° East 514 592 35,800 -1,622 Descending FlightAware ADS-B
Mon 06:58:42 PM 42.0690 -75.1720 111° Southeast 523 602 34,600 -1,652 Descending FlightAware ADS-B
Mon 06:59:12 PM 42.0430 -75.0880 113° Southeast 527 606 33,900 -1,846 Descending FlightAware ADS-B
Mon 06:59:47 PM 42.0090 -74.9750 112° Southeast 534 615 32,600 -2,432 Descending FlightAware ADS-B
Mon 07:00:26 PM 41.9720 -74.8570 113° Southeast 530 610 30,900 -2,630 Descending FlightAware ADS-B
Mon 07:01:00 PM 41.9400 -74.7510 112° Southeast 523 602 29,400 -2,211 Descending FlightAware ADS-B
Mon 07:01:42 PM 41.9030 -74.6310 112° Southeast 520 598 28,100 -1,077 Descending FlightAware ADS-B
Mon 07:02:18 PM 41.8700 -74.5190 112° Southeast 514 592 28,000 -87 Descending FlightAware ADS-B
Mon 07:02:51 PM 41.8420 -74.4270 112° Southeast 514 592 28,000 -871 Level FlightAware ADS-B
Mon 07:03:20 PM 41.8010 -74.3480 125° Southeast 514 592 27,100 -1,944 Descending FlightAware ADS-B
Mon 07:04:02 PM 41.7230 -74.2720 144° Southeast 496 571 25,700 -2,000 Descending FlightAware ADS-B
Mon 07:04:35 PM 41.6590 -74.2320 155° Southeast 480 552 24,600 -1,909 Descending FlightAware ADS-B
Mon 07:05:08 PM 41.5960 -74.1930 155° Southeast 468 539 23,600 -1,917 Descending FlightAware ADS-B
Mon 07:05:47 PM 41.5180 -74.1450 155° Southeast 468 539 22,300 -2,053 Descending FlightAware ADS-B
Mon 07:06:24 PM 41.4440 -74.1000 155° Southeast 463 533 21,000 -2,082 Descending FlightAware ADS-B
Mon 07:06:36 PM 41.4220 -74.0920 165° South 453 521 20,600 -1,224 Descending FlightAware ADS-B
Mon 07:07:13 PM 41.3430 -74.1030 186° South 427 491 20,000 -529 Descending FlightAware ADS-B
Mon 07:07:44 PM 41.2900 -74.1440 210° Southwest 422 486 20,000  Level FlightAware ADS-B
Mon 07:08:21 PM 41.2300 -74.1960 213° Southwest 427 491 20,000 -250 Level FlightAware ADS-B
Mon 07:08:56 PM 41.1670 -74.2340 204° Southwest 435 501 19,700 -811 Descending FlightAware ADS-B
Mon 07:09:35 PM 41.0880 -74.2310 178° South 442 509 19,000 -553 Descending FlightAware ADS-B
Mon 07:10:12 PM 41.0160 -74.1930 158° South 450 518 19,000  Level FlightAware ADS-B
Mon 07:10:48 PM 40.9500 -74.1540 156° South 446 513 19,000  Level FlightAware ADS-B
Mon 07:11:22 PM 40.8990 -74.0990 141° Southeast 405 466 19,000 -800 Level FlightAware ADS-B
Mon 07:11:48 PM 40.8673 -74.0484 130° Southeast 374 430 18,200 -1,800 Descending FlightAware ADS-B
Mon 07:11:52 PM 40.8622 -74.0427 140° Southeast 371 427 18,100 -1,500 Descending FlightAware ADS-B
Mon 07:12:00 PM 40.8505 -74.0325 147° Southeast 363 418 17,900 -1,765 Descending FlightAware ADS-B
Mon 07:12:09 PM 40.8367 -74.0243 156° South 358 412 17,600 -1,650 Descending FlightAware ADS-B
Mon 07:12:40 PM 40.7889 -74.0047 163° South 354 407 16,800 -1,613 Descending FlightAware ADS-B
Mon 07:13:42 PM 40.6930 -73.9680 164° South 350 403 15,100 -1,592 Descending FlightAware ADS-B
Mon 07:14:18 PM 40.6360 -73.9470 164° South 344 396 14,200 -1,352 Descending FlightAware ADS-B
Mon 07:14:53 PM 40.5840 -73.9280 164° South 336 387 13,500 -1,375 Descending FlightAware ADS-B
Mon 07:15:06 PM 40.5640 -73.9180 159° South 336 387 13,100 -2,000 Descending FlightAware ADS-B
Mon 07:15:41 PM 40.5220 -73.8750 142° Southeast 335 386 11,900 -2,250 Descending FlightAware ADS-B
Mon 07:16:18 PM 40.4790 -73.8250 139° Southeast 330 380 10,400 -2,421 Descending FlightAware ADS-B
Mon 07:16:38 PM 40.4560 -73.7990 139° Southeast 326 375 9,600 -2,195 Descending FlightAware ADS-B
Mon 07:16:59 PM 40.4330 -73.7710 137° Southeast 316 364 8,900 -2,000 Descending FlightAware ADS-B
Mon 07:17:20 PM 40.4120 -73.7440 136° Southeast 307 353 8,200 -2,000 Descending FlightAware ADS-B
Mon 07:17:35 PM 40.3970 -73.7250 136° Southeast 303 349 7,700 -2,077 Descending FlightAware ADS-B
Mon 07:17:46 PM 40.3900 -73.7070 117° Southeast 300 345 7,300 -1,875 Descending FlightAware ADS-B
Mon 07:17:51 PM 40.3880 -73.7000 111° Southeast 302 348 7,200 -818 Descending FlightAware ADS-B
Mon 07:18:08 PM 40.3890 -73.6680 88° East 297 342 7,000 -818 Descending FlightAware ADS-B
Mon 07:18:13 PM 40.3920 -73.6590 66° East 292 336 6,900 -400 Descending FlightAware ADS-B
Mon 07:18:23 PM 40.3990 -73.6450 57° Northeast 286 329 6,900  Level FlightAware ADS-B
Mon 07:18:43 PM 40.4150 -73.6170 53° Northeast 285 328 6,900  Level FlightAware ADS-B
Mon 07:19:00 PM 40.4310 -73.5960 45° Northeast 279 321 6,900  Level FlightAware ADS-B
Mon 07:19:21 PM 40.4540 -73.5770 32° Northeast 277 319 6,900  Level FlightAware ADS-B
Mon 07:19:41 PM 40.4760 -73.5600 30° Northeast 277 319 6,900  Level FlightAware ADS-B
Mon 07:20:01 PM 40.4980 -73.5420 32° Northeast 277 319 6,900  Level FlightAware ADS-B
Mon 07:20:22 PM 40.5210 -73.5240 31° Northeast 272 313 6,900  Level FlightAware ADS-B
Mon 07:20:38 PM 40.5370 -73.5110 32° Northeast 254 292 6,900 -439 Level FlightAware ADS-B
Mon 07:21:03 PM 40.5610 -73.4910 32° Northeast 237 273 6,600 -1,102 Descending FlightAware ADS-B
Mon 07:21:27 PM 40.5840 -73.4720 32° Northeast 246 283 6,000 -1,500 Descending FlightAware ADS-B
Mon 07:21:39 PM 40.5960 -73.4620 32° Northeast 250 288 5,700 -1,500 Descending FlightAware ADS-B
Mon 07:21:59 PM 40.6150 -73.4460 33° Northeast 253 291 5,200 -1,116 Descending FlightAware ADS-B
Mon 07:22:22 PM 40.6380 -73.4270 32° Northeast 254 292 4,900 -643 Descending FlightAware ADS-B
Mon 07:22:27 PM 40.6440 -73.4240 21° North 253 291 4,900  Level FlightAware ADS-B
Mon 07:22:35 PM 40.6530 -73.4210 14° North 246 283 4,900  Level FlightAware ADS-B
Mon 07:23:03 PM 40.6810 -73.4310 345° North 231 266 4,900  Level FlightAware ADS-B
Mon 07:23:23 PM 40.7000 -73.4460 329° Northwest 231 266 4,900  Level FlightAware ADS-B
Mon 07:23:39 PM 40.7140 -73.4580 327° Northwest 231 266 4,900 -333 Level FlightAware ADS-B
Mon 07:23:59 PM 40.7320 -73.4730 328° Northwest 228 262 4,700 -750 Descending FlightAware ADS-B
Mon 07:24:11 PM 40.7430 -73.4810 331° Northwest 229 264 4,500 -1,029 Descending FlightAware ADS-B
Mon 07:24:34 PM 40.7640 -73.4970 330° Northwest 228 262 4,100 -857 Descending FlightAware ADS-B
Mon 07:24:53 PM 40.7820 -73.5110 330° Northwest 221 254 3,900 -429 Descending FlightAware ADS-B
Mon 07:25:02 PM 40.7890 -73.5160 332° Northwest 215 247 3,900  Level FlightAware ADS-B
Mon 07:25:10 PM 40.7950 -73.5230 319° Northwest 211 243 3,900  Level FlightAware ADS-B
Mon 07:25:31 PM 40.8060 -73.5460 302° West 209 241 3,900  Level FlightAware ADS-B
Mon 07:25:43 PM 40.8110 -73.5590 297° West 207 238 3,900 -286 Level FlightAware ADS-B
Mon 07:25:52 PM 40.8130 -73.5710 282° West 204 235 3,800 -818 Descending FlightAware ADS-B
Mon 07:26:05 PM 40.8150 -73.5870 279° West 203 234 3,600 -1,050 Descending FlightAware ADS-B
Mon 07:26:32 PM 40.8080 -73.6180 253° West 193 222 3,100 -878 Descending FlightAware ADS-B
Mon 07:26:46 PM 40.8030 -73.6320 245° Southwest 186 214 3,000 -324 Descending FlightAware ADS-B
Mon 07:27:09 PM 40.7930 -73.6540 239° Southwest 185 213 2,900 -171 Descending FlightAware ADS-B
Mon 07:27:21 PM 40.7850 -73.6640 223° Southwest 182 209 2,900  Level FlightAware ADS-B
Mon 07:27:41 PM 40.7730 -73.6770 219° Southwest 169 194 2,900 -474 Level FlightAware ADS-B
Mon 07:27:59 PM 40.7600 -73.6870 210° Southwest 170 196 2,600 -1,029 Descending FlightAware ADS-B
Mon 07:28:16 PM 40.7490 -73.6950 209° Southwest 170 196 2,300 -947 Descending FlightAware ADS-B
Mon 07:28:37 PM 40.7340 -73.7050 207° Southwest 172 198 2,000 -857 Descending FlightAware ADS-B
Mon 07:28:58 PM 40.7190 -73.7150 207° Southwest 169 194 1,700 -800 Descending FlightAware ADS-B
Mon 07:29:22 PM 40.7040 -73.7260 209° Southwest 152 175 1,400 -811 Descending FlightAware ADS-B
Mon 07:29:35 PM 40.6960 -73.7310 205° Southwest 140 161 1,200 -909 Descending FlightAware ADS-B
Mon 07:29:55 PM 40.6850 -73.7390 209° Southwest 123 142 900 -732 Descending FlightAware ADS-B
Mon 07:30:16 PM 40.6750 -73.7460 208° Southwest 120 138 700 -545 Descending FlightAware ADS-B
Mon 07:30:39 PM 40.6630 -73.7540 207° Southwest 125 144 500 -571 Descending FlightAware ADS-B
Mon 07:30:58 PM 40.6540 -73.7610 211° Southwest 127 146 300 -632 Descending FlightAware ADS-B
Mon 07:31:19 PM 40.6420 -73.7700 210° Southwest 128 147 -857 Descending FlightAware ADS-B
Mon 07:31:39 PM 40.6330 -73.7770 211° Southwest 78 90  Level FlightAware ADS-B

Login

Don't have an account? Register now (free) for customized features, flight alerts, and more!